sensor_id;sensor_type;location;lat;lon;timestamp;pressure;altitude;pressure_sealevel;temperature;humidity
29825;BME280;16713;52.916;12.834;2023-03-14T00:00:13;98459.56;;;8.84;88.87
29825;BME280;16713;52.916;12.834;2023-03-14T00:02:40;98468.13;;;8.93;89.39
29825;BME280;16713;52.916;12.834;2023-03-14T00:05:07;98472.41;;;8.94;89.05
29825;BME280;16713;52.916;12.834;2023-03-14T00:07:35;98469.69;;;8.87;88.08
29825;BME280;16713;52.916;12.834;2023-03-14T00:10:03;98466.59;;;8.81;87.99
29825;BME280;16713;52.916;12.834;2023-03-14T00:12:30;98461.53;;;8.80;88.77
29825;BME280;16713;52.916;12.834;2023-03-14T00:14:57;98473.25;;;8.80;88.58
29825;BME280;16713;52.916;12.834;2023-03-14T00:17:23;98476.75;;;8.81;89.60
29825;BME280;16713;52.916;12.834;2023-03-14T00:19:50;98474.81;;;8.81;88.51
29825;BME280;16713;52.916;12.834;2023-03-14T00:22:18;98468.59;;;8.74;89.16
29825;BME280;16713;52.916;12.834;2023-03-14T00:24:44;98463.88;;;8.81;89.51
29825;BME280;16713;52.916;12.834;2023-03-14T00:27:11;98463.13;;;8.74;89.67
29825;BME280;16713;52.916;12.834;2023-03-14T00:29:37;98474.00;;;8.84;89.73
29825;BME280;16713;52.916;12.834;2023-03-14T00:32:03;98463.44;;;8.90;88.09
29825;BME280;16713;52.916;12.834;2023-03-14T00:34:30;98445.47;;;8.92;89.54
29825;BME280;16713;52.916;12.834;2023-03-14T00:36:57;98428.72;;;8.83;87.87
29825;BME280;16713;52.916;12.834;2023-03-14T00:39:23;98435.72;;;8.88;89.30
29825;BME280;16713;52.916;12.834;2023-03-14T00:41:49;98439.63;;;8.87;89.38
29825;BME280;16713;52.916;12.834;2023-03-14T00:44:16;98432.56;;;8.96;88.94
29825;BME280;16713;52.916;12.834;2023-03-14T00:46:42;98429.47;;;8.91;89.17
29825;BME280;16713;52.916;12.834;2023-03-14T00:49:08;98435.34;;;8.86;89.06
29825;BME280;16713;52.916;12.834;2023-03-14T00:51:35;98427.94;;;8.86;88.50
29825;BME280;16713;52.916;12.834;2023-03-14T00:54:01;98425.94;;;8.87;88.63
29825;BME280;16713;52.916;12.834;2023-03-14T00:56:27;98432.19;;;8.91;88.91
29825;BME280;16713;52.916;12.834;2023-03-14T00:58:54;98420.88;;;8.92;87.85
29825;BME280;16713;52.916;12.834;2023-03-14T01:01:21;98402.16;;;8.84;88.55
29825;BME280;16713;52.916;12.834;2023-03-14T01:03:50;98394.31;;;8.89;88.83
29825;BME280;16713;52.916;12.834;2023-03-14T01:06:18;98397.44;;;8.91;87.08
29825;BME280;16713;52.916;12.834;2023-03-14T01:08:45;98405.25;;;8.89;87.60
29825;BME280;16713;52.916;12.834;2023-03-14T01:11:16;98390.41;;;8.87;88.82
29825;BME280;16713;52.916;12.834;2023-03-14T01:13:43;98391.59;;;8.86;88.27
29825;BME280;16713;52.916;12.834;2023-03-14T01:16:10;98387.34;;;8.85;88.32
29825;BME280;16713;52.916;12.834;2023-03-14T01:18:37;98395.16;;;8.83;87.03
29825;BME280;16713;52.916;12.834;2023-03-14T01:21:04;98405.66;;;8.88;87.43
29825;BME280;16713;52.916;12.834;2023-03-14T01:23:35;98423.22;;;8.90;87.50
29825;BME280;16713;52.916;12.834;2023-03-14T01:26:01;98427.16;;;8.82;86.81
29825;BME280;16713;52.916;12.834;2023-03-14T01:28:27;98434.97;;;8.84;87.38
29825;BME280;16713;52.916;12.834;2023-03-14T01:30:54;98421.69;;;8.86;88.12
29825;BME280;16713;52.916;12.834;2023-03-14T01:33:20;98427.94;;;8.86;87.25
29825;BME280;16713;52.916;12.834;2023-03-14T01:35:49;98432.59;;;8.86;87.26
29825;BME280;16713;52.916;12.834;2023-03-14T01:38:15;98438.88;;;8.83;87.69
29825;BME280;16713;52.916;12.834;2023-03-14T01:40:43;98465.78;;;8.88;87.65
29825;BME280;16713;52.916;12.834;2023-03-14T01:43:13;98467.00;;;8.83;86.88
29825;BME280;16713;52.916;12.834;2023-03-14T01:46:06;98456.81;;;8.84;87.69
29825;BME280;16713;52.916;12.834;2023-03-14T01:48:40;98453.69;;;8.89;87.68
29825;BME280;16713;52.916;12.834;2023-03-14T01:51:08;98465.41;;;8.86;87.32
29825;BME280;16713;52.916;12.834;2023-03-14T01:53:35;98456.06;;;8.80;87.47
29825;BME280;16713;52.916;12.834;2023-03-14T01:56:02;98438.06;;;8.86;87.35
29825;BME280;16713;52.916;12.834;2023-03-14T01:58:29;98454.06;;;8.87;86.06
29825;BME280;16713;52.916;12.834;2023-03-14T02:00:57;98438.06;;;8.93;85.90
29825;BME280;16713;52.916;12.834;2023-03-14T02:03:24;98432.22;;;8.84;85.65
29825;BME280;16713;52.916;12.834;2023-03-14T02:05:53;98428.69;;;8.90;85.04
29825;BME280;16713;52.916;12.834;2023-03-14T02:08:21;98427.94;;;8.83;86.08
29825;BME280;16713;52.916;12.834;2023-03-14T02:10:49;98446.69;;;8.81;85.16
29825;BME280;16713;52.916;12.834;2023-03-14T02:13:16;98444.00;;;8.74;86.94
29825;BME280;16713;52.916;12.834;2023-03-14T02:15:43;98453.34;;;8.73;86.57
29825;BME280;16713;52.916;12.834;2023-03-14T02:18:09;98442.09;;;8.57;85.44
29825;BME280;16713;52.916;12.834;2023-03-14T02:20:47;98431.94;;;8.64;85.54
29825;BME280;16713;52.916;12.834;2023-03-14T02:23:20;98407.34;;;8.64;85.51
29825;BME280;16713;52.916;12.834;2023-03-14T02:26:01;98405.34;;;8.75;85.19
29825;BME280;16713;52.916;12.834;2023-03-14T02:28:32;98394.81;;;8.70;85.03
29825;BME280;16713;52.916;12.834;2023-03-14T02:30:58;98392.81;;;8.81;86.41
29825;BME280;16713;52.916;12.834;2023-03-14T02:33:24;98383.53;;;8.65;85.22
29825;BME280;16713;52.916;12.834;2023-03-14T02:35:53;98385.47;;;8.68;85.28
29825;BME280;16713;52.916;12.834;2023-03-14T02:38:26;98372.56;;;8.68;85.59
29825;BME280;16713;52.916;12.834;2023-03-14T02:40:55;98379.94;;;8.82;86.13
29825;BME280;16713;52.916;12.834;2023-03-14T02:43:21;98375.69;;;8.74;84.23
29825;BME280;16713;52.916;12.834;2023-03-14T02:45:48;98363.16;;;8.80;85.17
29825;BME280;16713;52.916;12.834;2023-03-14T02:50:41;98353.84;;;8.67;84.56
29825;BME280;16713;52.916;12.834;2023-03-14T02:53:08;98351.91;;;8.64;86.08
29825;BME280;16713;52.916;12.834;2023-03-14T02:55:34;98349.19;;;8.64;84.87
29825;BME280;16713;52.916;12.834;2023-03-14T02:58:00;98341.03;;;8.57;84.78
29825;BME280;16713;52.916;12.834;2023-03-14T03:00:27;98344.53;;;8.61;84.69
29825;BME280;16713;52.916;12.834;2023-03-14T03:02:53;98340.63;;;8.58;84.19
29825;BME280;16713;52.916;12.834;2023-03-14T03:05:20;98328.88;;;8.65;84.00
29825;BME280;16713;52.916;12.834;2023-03-14T03:07:46;98344.88;;;8.63;84.88
29825;BME280;16713;52.916;12.834;2023-03-14T03:10:12;98349.91;;;8.71;85.52
29825;BME280;16713;52.916;12.834;2023-03-14T03:12:39;98338.97;;;8.75;84.27
29825;BME280;16713;52.916;12.834;2023-03-14T03:15:05;98326.91;;;8.69;84.68
29825;BME280;16713;52.916;12.834;2023-03-14T03:17:32;98334.75;;;8.60;85.45
29825;BME280;16713;52.916;12.834;2023-03-14T03:19:58;98345.94;;;8.83;83.39
29825;BME280;16713;52.916;12.834;2023-03-14T03:22:24;98341.69;;;8.75;83.40
29825;BME280;16713;52.916;12.834;2023-03-14T03:24:50;98348.69;;;8.79;83.52
29825;BME280;16713;52.916;12.834;2023-03-14T03:27:17;98352.94;;;8.91;84.53
29825;BME280;16713;52.916;12.834;2023-03-14T03:29:43;98364.94;;;9.04;83.59
29825;BME280;16713;52.916;12.834;2023-03-14T03:32:09;98365.69;;;9.08;83.64
29825;BME280;16713;52.916;12.834;2023-03-14T03:34:36;98348.13;;;9.05;83.72
29825;BME280;16713;52.916;12.834;2023-03-14T03:37:02;98343.50;;;8.99;83.18
29825;BME280;16713;52.916;12.834;2023-03-14T03:39:28;98356.72;;;9.07;83.05
29825;BME280;16713;52.916;12.834;2023-03-14T03:41:55;98362.13;;;9.11;81.90
29825;BME280;16713;52.916;12.834;2023-03-14T03:44:21;98356.66;;;9.14;82.52
29825;BME280;16713;52.916;12.834;2023-03-14T03:46:47;98346.22;;;9.02;82.49
29825;BME280;16713;52.916;12.834;2023-03-14T03:49:14;98338.06;;;8.92;82.22
29825;BME280;16713;52.916;12.834;2023-03-14T03:51:40;98332.25;;;8.86;81.10
29825;BME280;16713;52.916;12.834;2023-03-14T03:54:06;98341.22;;;8.87;82.60
29825;BME280;16713;52.916;12.834;2023-03-14T03:56:33;98342.38;;;8.89;81.55
29825;BME280;16713;52.916;12.834;2023-03-14T03:58:59;98342.00;;;8.91;81.59
29825;BME280;16713;52.916;12.834;2023-03-14T04:01:25;98346.38;;;8.78;81.29
29825;BME280;16713;52.916;12.834;2023-03-14T04:03:52;98340.91;;;8.74;82.38
29825;BME280;16713;52.916;12.834;2023-03-14T04:06:19;98347.16;;;8.78;81.43
29825;BME280;16713;52.916;12.834;2023-03-14T04:08:45;98348.72;;;8.76;82.41
29825;BME280;16713;52.916;12.834;2023-03-14T04:11:11;98347.66;;;8.56;81.68
29825;BME280;16713;52.916;12.834;2023-03-14T04:13:38;98337.47;;;8.67;81.88
29825;BME280;16713;52.916;12.834;2023-03-14T04:16:09;98346.88;;;8.59;81.51
29825;BME280;16713;52.916;12.834;2023-03-14T04:18:36;98339.47;;;8.59;82.65
29825;BME280;16713;52.916;12.834;2023-03-14T04:21:02;98332.81;;;8.57;80.96
29825;BME280;16713;52.916;12.834;2023-03-14T04:23:28;98335.22;;;8.51;83.02
29825;BME280;16713;52.916;12.834;2023-03-14T04:25:55;98328.19;;;8.47;81.77
29825;BME280;16713;52.916;12.834;2023-03-14T04:28:22;98333.63;;;8.50;81.54
29825;BME280;16713;52.916;12.834;2023-03-14T04:30:48;98332.09;;;8.49;82.77
29825;BME280;16713;52.916;12.834;2023-03-14T04:33:14;98322.78;;;8.36;82.53
29825;BME280;16713;52.916;12.834;2023-03-14T04:35:43;98322.00;;;8.36;82.90
29825;BME280;16713;52.916;12.834;2023-03-14T04:38:10;98318.13;;;8.30;81.52
29825;BME280;16713;52.916;12.834;2023-03-14T04:40:37;98316.53;;;8.36;81.50
29825;BME280;16713;52.916;12.834;2023-03-14T04:43:04;98314.22;;;8.34;82.98
29825;BME280;16713;52.916;12.834;2023-03-14T04:45:30;98306.03;;;8.31;81.72
29825;BME280;16713;52.916;12.834;2023-03-14T04:47:56;98309.56;;;8.28;81.59
29825;BME280;16713;52.916;12.834;2023-03-14T04:50:23;98308.34;;;8.36;81.68
29825;BME280;16713;52.916;12.834;2023-03-14T04:52:49;98309.94;;;8.37;82.20
29825;BME280;16713;52.916;12.834;2023-03-14T04:55:15;98313.47;;;8.34;81.28
29825;BME280;16713;52.916;12.834;2023-03-14T04:57:42;98301.34;;;8.31;81.73
29825;BME280;16713;52.916;12.834;2023-03-14T05:00:08;98313.00;;;8.42;81.14
29825;BME280;16713;52.916;12.834;2023-03-14T05:02:35;98305.25;;;8.34;80.96
29825;BME280;16713;52.916;12.834;2023-03-14T05:05:01;98300.53;;;8.41;80.62
29825;BME280;16713;52.916;12.834;2023-03-14T05:07:28;98306.41;;;8.36;80.62
29825;BME280;16713;52.916;12.834;2023-03-14T05:09:54;98293.16;;;8.35;80.66
29825;BME280;16713;52.916;12.834;2023-03-14T05:12:20;98301.34;;;8.38;81.30
29825;BME280;16713;52.916;12.834;2023-03-14T05:14:47;98297.00;;;8.41;80.90
29825;BME280;16713;52.916;12.834;2023-03-14T05:17:13;98294.69;;;8.39;81.34
29825;BME280;16713;52.916;12.834;2023-03-14T05:19:40;98286.91;;;8.31;82.58
29825;BME280;16713;52.916;12.834;2023-03-14T05:22:07;98295.09;;;8.34;82.04
29825;BME280;16713;52.916;12.834;2023-03-14T05:24:33;98296.28;;;8.37;80.72
29825;BME280;16713;52.916;12.834;2023-03-14T05:27:00;98299.34;;;8.39;80.91
29825;BME280;16713;52.916;12.834;2023-03-14T05:29:26;98293.16;;;8.35;81.67
29825;BME280;16713;52.916;12.834;2023-03-14T05:31:52;98296.63;;;8.39;81.98
29825;BME280;16713;52.916;12.834;2023-03-14T05:34:19;98298.59;;;8.38;80.23
29825;BME280;16713;52.916;12.834;2023-03-14T05:36:45;98300.13;;;8.46;81.40
29825;BME280;16713;52.916;12.834;2023-03-14T05:39:11;98290.75;;;8.44;79.33
29825;BME280;16713;52.916;12.834;2023-03-14T05:41:37;98290.81;;;8.37;81.39
29825;BME280;16713;52.916;12.834;2023-03-14T05:44:04;98286.50;;;8.39;80.91
29825;BME280;16713;52.916;12.834;2023-03-14T05:46:30;98293.53;;;8.40;81.08
29825;BME280;16713;52.916;12.834;2023-03-14T05:48:57;98307.50;;;8.49;80.44
29825;BME280;16713;52.916;12.834;2023-03-14T05:51:24;98297.00;;;8.44;80.25
29825;BME280;16713;52.916;12.834;2023-03-14T05:53:50;98297.28;;;8.64;79.33
29825;BME280;16713;52.916;12.834;2023-03-14T05:56:16;98297.28;;;8.64;80.10
29825;BME280;16713;52.916;12.834;2023-03-14T05:58:43;98301.22;;;8.56;79.01
29825;BME280;16713;52.916;12.834;2023-03-14T06:01:09;98300.47;;;8.52;79.93
29825;BME280;16713;52.916;12.834;2023-03-14T06:03:35;98297.69;;;8.59;80.10
29825;BME280;16713;52.916;12.834;2023-03-14T06:06:02;98296.91;;;8.55;78.53
29825;BME280;16713;52.916;12.834;2023-03-14T06:08:28;98298.53;;;8.45;78.64
29825;BME280;16713;52.916;12.834;2023-03-14T06:10:56;98306.31;;;8.50;79.80
29825;BME280;16713;52.916;12.834;2023-03-14T06:13:22;98296.56;;;8.53;78.66
29825;BME280;16713;52.916;12.834;2023-03-14T06:15:49;98301.56;;;8.61;79.24
29825;BME280;16713;52.916;12.834;2023-03-14T06:18:15;98292.22;;;8.59;78.79
29825;BME280;16713;52.916;12.834;2023-03-14T06:20:41;98286.47;;;8.46;78.77
29825;BME280;16713;52.916;12.834;2023-03-14T06:23:08;98294.63;;;8.50;78.80
29825;BME280;16713;52.916;12.834;2023-03-14T06:25:35;98300.81;;;8.57;79.62
29825;BME280;16713;52.916;12.834;2023-03-14T06:28:01;98312.47;;;8.65;79.86
29825;BME280;16713;52.916;12.834;2023-03-14T06:30:28;98307.84;;;8.58;79.02
29825;BME280;16713;52.916;12.834;2023-03-14T06:32:54;98310.22;;;8.53;79.42
29825;BME280;16713;52.916;12.834;2023-03-14T06:35:22;98315.50;;;8.77;79.87
29825;BME280;16713;52.916;12.834;2023-03-14T06:37:48;98321.38;;;8.79;78.83
29825;BME280;16713;52.916;12.834;2023-03-14T06:40:15;98328.06;;;8.68;78.19
29825;BME280;16713;52.916;12.834;2023-03-14T06:42:44;98317.59;;;8.59;78.34
29825;BME280;16713;52.916;12.834;2023-03-14T06:45:10;98335.09;;;8.72;78.65
29825;BME280;16713;52.916;12.834;2023-03-14T06:47:37;98334.69;;;8.74;78.46
29825;BME280;16713;52.916;12.834;2023-03-14T06:50:05;98338.97;;;8.75;78.78
29825;BME280;16713;52.916;12.834;2023-03-14T06:52:31;98333.81;;;8.84;79.89
29825;BME280;16713;52.916;12.834;2023-03-14T06:54:58;98328.81;;;8.75;78.09
29825;BME280;16713;52.916;12.834;2023-03-14T06:57:24;98331.50;;;8.82;79.10
29825;BME280;16713;52.916;12.834;2023-03-14T06:59:51;98340.41;;;8.93;78.62
29825;BME280;16713;52.916;12.834;2023-03-14T07:02:17;98335.72;;;8.94;76.63
29825;BME280;16713;52.916;12.834;2023-03-14T07:04:45;98349.78;;;8.96;78.03
29825;BME280;16713;52.916;12.834;2023-03-14T07:07:11;98344.72;;;8.91;77.36
29825;BME280;16713;52.916;12.834;2023-03-14T07:09:38;98342.34;;;8.96;78.43
29825;BME280;16713;52.916;12.834;2023-03-14T07:12:05;98337.34;;;8.84;77.71
29825;BME280;16713;52.916;12.834;2023-03-14T07:14:31;98342.78;;;8.88;77.57
29825;BME280;16713;52.916;12.834;2023-03-14T07:16:57;98351.69;;;8.99;76.88
29825;BME280;16713;52.916;12.834;2023-03-14T07:19:24;98349.69;;;9.03;77.28
29825;BME280;16713;52.916;12.834;2023-03-14T07:21:50;98357.88;;;9.10;77.27
29825;BME280;16713;52.916;12.834;2023-03-14T07:24:16;98351.25;;;9.07;77.59
29825;BME280;16713;52.916;12.834;2023-03-14T07:26:43;98365.97;;;9.24;77.11
29825;BME280;16713;52.916;12.834;2023-03-14T07:29:09;98363.31;;;9.21;77.48
29825;BME280;16713;52.916;12.834;2023-03-14T07:31:35;98370.66;;;9.27;77.39
29825;BME280;16713;52.916;12.834;2023-03-14T07:34:02;98362.34;;;9.41;75.78
29825;BME280;16713;52.916;12.834;2023-03-14T07:36:29;98371.25;;;9.49;76.33
29825;BME280;16713;52.916;12.834;2023-03-14T07:38:55;98370.59;;;9.38;76.84
29825;BME280;16713;52.916;12.834;2023-03-14T07:41:21;98381.19;;;9.76;76.70
29825;BME280;16713;52.916;12.834;2023-03-14T07:43:49;98374.38;;;9.91;75.74
29825;BME280;16713;52.916;12.834;2023-03-14T07:46:15;98382.44;;;10.09;76.13
29825;BME280;16713;52.916;12.834;2023-03-14T07:48:41;98389.72;;;10.19;75.92
29825;BME280;16713;52.916;12.834;2023-03-14T07:51:08;98388.25;;;10.11;75.65
29825;BME280;16713;52.916;12.834;2023-03-14T07:53:34;98382.22;;;9.89;72.89
29825;BME280;16713;52.916;12.834;2023-03-14T07:56:01;98403.53;;;10.12;73.25
29825;BME280;16713;52.916;12.834;2023-03-14T07:58:27;98396.38;;;10.21;74.38
29825;BME280;16713;52.916;12.834;2023-03-14T08:00:53;98393.69;;;10.14;74.62
29825;BME280;16713;52.916;12.834;2023-03-14T08:03:20;98401.66;;;10.39;72.82
29825;BME280;16713;52.916;12.834;2023-03-14T08:05:50;98397.50;;;10.24;72.99
29825;BME280;16713;52.916;12.834;2023-03-14T08:08:17;98384.59;;;10.24;72.15
29825;BME280;16713;52.916;12.834;2023-03-14T08:10:43;98396.13;;;10.42;72.61
29825;BME280;16713;52.916;12.834;2023-03-14T08:13:09;98389.22;;;10.65;71.02
29825;BME280;16713;52.916;12.834;2023-03-14T08:15:36;98385.19;;;10.73;71.29
29825;BME280;16713;52.916;12.834;2023-03-14T08:18:03;98393.03;;;10.71;71.32
29825;BME280;16713;52.916;12.834;2023-03-14T08:20:30;98386.06;;;10.66;70.99
29825;BME280;16713;52.916;12.834;2023-03-14T08:22:57;98387.47;;;10.78;70.52
29825;BME280;16713;52.916;12.834;2023-03-14T08:25:24;98386.44;;;10.68;70.86
29825;BME280;16713;52.916;12.834;2023-03-14T08:27:50;98382.03;;;10.74;70.51
29825;BME280;16713;52.916;12.834;2023-03-14T08:30:17;98384.28;;;10.52;71.93
29825;BME280;16713;52.916;12.834;2023-03-14T08:32:45;98385.00;;;10.57;71.89
29825;BME280;16713;52.916;12.834;2023-03-14T08:35:12;98391.97;;;10.65;72.43
29825;BME280;16713;52.916;12.834;2023-03-14T08:37:38;98385.06;;;10.53;71.44
29825;BME280;16713;52.916;12.834;2023-03-14T08:40:05;98397.84;;;10.63;72.05
29825;BME280;16713;52.916;12.834;2023-03-14T08:42:36;98392.00;;;10.61;71.71
29825;BME280;16713;52.916;12.834;2023-03-14T08:45:03;98397.84;;;10.63;71.51
29825;BME280;16713;52.916;12.834;2023-03-14T08:47:29;98390.56;;;10.80;71.51
29825;BME280;16713;52.916;12.834;2023-03-14T08:49:55;98407.34;;;10.85;71.07
29825;BME280;16713;52.916;12.834;2023-03-14T08:52:22;98395.09;;;10.93;71.13
29825;BME280;16713;52.916;12.834;2023-03-14T08:54:48;98401.19;;;11.04;70.52
29825;BME280;16713;52.916;12.834;2023-03-14T08:57:15;98395.25;;;10.83;70.79
29825;BME280;16713;52.916;12.834;2023-03-14T08:59:41;98411.03;;;11.02;70.17
29825;BME280;16713;52.916;12.834;2023-03-14T09:02:09;98389.28;;;10.88;69.89
29825;BME280;16713;52.916;12.834;2023-03-14T09:04:38;98408.75;;;10.97;70.86
29825;BME280;16713;52.916;12.834;2023-03-14T09:07:05;98404.78;;;11.01;70.43
29825;BME280;16713;52.916;12.834;2023-03-14T09:09:31;98399.94;;;11.09;69.93
29825;BME280;16713;52.916;12.834;2023-03-14T09:11:57;98393.53;;;11.19;69.70
29825;BME280;16713;52.916;12.834;2023-03-14T09:14:24;98393.25;;;11.13;68.22
29825;BME280;16713;52.916;12.834;2023-03-14T09:16:50;98395.31;;;11.06;68.55
29825;BME280;16713;52.916;12.834;2023-03-14T09:19:17;98392.66;;;11.25;67.91
29825;BME280;16713;52.916;12.834;2023-03-14T09:21:43;98392.38;;;11.43;67.63
29825;BME280;16713;52.916;12.834;2023-03-14T09:24:09;98383.44;;;11.12;67.53
29825;BME280;16713;52.916;12.834;2023-03-14T09:26:35;98392.97;;;11.04;68.05
29825;BME280;16713;52.916;12.834;2023-03-14T09:29:02;98393.38;;;11.03;69.03
29825;BME280;16713;52.916;12.834;2023-03-14T09:31:28;98400.38;;;11.07;68.29
29825;BME280;16713;52.916;12.834;2023-03-14T09:33:55;98402.69;;;11.09;68.68
29825;BME280;16713;52.916;12.834;2023-03-14T09:36:22;98397.41;;;10.68;69.58
29825;BME280;16713;52.916;12.834;2023-03-14T09:38:48;98404.16;;;10.90;69.28
29825;BME280;16713;52.916;12.834;2023-03-14T09:41:21;98396.06;;;10.80;69.01
29825;BME280;16713;52.916;12.834;2023-03-14T09:43:52;98402.34;;;11.07;68.73
29825;BME280;16713;52.916;12.834;2023-03-14T09:46:23;98399.63;;;11.07;68.88
29825;BME280;16713;52.916;12.834;2023-03-14T09:48:49;98406.97;;;11.13;68.29
29825;BME280;16713;52.916;12.834;2023-03-14T09:51:17;98405.34;;;11.16;68.58
29825;BME280;16713;52.916;12.834;2023-03-14T09:53:44;98402.16;;;11.21;68.32
29825;BME280;16713;52.916;12.834;2023-03-14T09:56:16;98402.94;;;11.21;68.20
29825;BME280;16713;52.916;12.834;2023-03-14T09:58:44;98403.22;;;11.27;68.58
29825;BME280;16713;52.916;12.834;2023-03-14T10:01:13;98401.53;;;11.10;68.17
29825;BME280;16713;52.916;12.834;2023-03-14T10:03:41;98405.91;;;11.04;68.65
29825;BME280;16713;52.916;12.834;2023-03-14T10:06:10;98406.13;;;11.16;68.01
29825;BME280;16713;52.916;12.834;2023-03-14T10:08:43;98408.66;;;11.30;68.07
29825;BME280;16713;52.916;12.834;2023-03-14T10:11:16;98418.25;;;11.19;68.48
29825;BME280;16713;52.916;12.834;2023-03-14T10:16:15;98411.66;;;11.13;68.08
29825;BME280;16713;52.916;12.834;2023-03-14T10:18:45;98411.75;;;11.06;68.98
29825;BME280;16713;52.916;12.834;2023-03-14T10:23:47;98423.34;;;11.17;68.46
29825;BME280;16713;52.916;12.834;2023-03-14T10:26:16;98427.00;;;11.37;67.92
29825;BME280;16713;52.916;12.834;2023-03-14T10:28:43;98420.19;;;11.18;67.39
29825;BME280;16713;52.916;12.834;2023-03-14T10:31:10;98421.13;;;11.35;68.36
29825;BME280;16713;52.916;12.834;2023-03-14T10:33:37;98426.88;;;11.44;68.50
29825;BME280;16713;52.916;12.834;2023-03-14T10:36:21;98426.78;;;11.24;68.33
29825;BME280;16713;52.916;12.834;2023-03-14T10:38:49;98429.13;;;11.26;68.59
29825;BME280;16713;52.916;12.834;2023-03-14T10:41:19;98420.69;;;11.13;68.66
29825;BME280;16713;52.916;12.834;2023-03-14T10:43:50;98429.94;;;11.23;68.49
29825;BME280;16713;52.916;12.834;2023-03-14T10:46:18;98434.56;;;11.29;68.40
29825;BME280;16713;52.916;12.834;2023-03-14T10:48:45;98422.19;;;11.18;69.00
29825;BME280;16713;52.916;12.834;2023-03-14T10:51:30;98428.47;;;11.41;67.83
29825;BME280;16713;52.916;12.834;2023-03-14T10:56:41;98429.28;;;11.42;68.33
29825;BME280;16713;52.916;12.834;2023-03-14T10:59:11;98418.25;;;11.45;68.60
29825;BME280;16713;52.916;12.834;2023-03-14T11:01:52;98421.88;;;11.39;67.75
29825;BME280;16713;52.916;12.834;2023-03-14T11:04:25;98419.41;;;11.44;67.59
29825;BME280;16713;52.916;12.834;2023-03-14T11:07:01;98413.72;;;11.32;68.05
29825;BME280;16713;52.916;12.834;2023-03-14T11:14:46;98411.91;;;11.48;67.84
29825;BME280;16713;52.916;12.834;2023-03-14T11:17:23;98415.69;;;11.58;68.75
29825;BME280;16713;52.916;12.834;2023-03-14T11:32:02;98400.06;;;11.78;68.33
29825;BME280;16713;52.916;12.834;2023-03-14T11:35:00;98396.91;;;11.79;67.11
29825;BME280;16713;52.916;12.834;2023-03-14T11:37:36;98399.34;;;11.74;67.10
29825;BME280;16713;52.916;12.834;2023-03-14T11:40:23;98393.25;;;11.86;66.99
29825;BME280;16713;52.916;12.834;2023-03-14T11:42:56;98399.16;;;12.08;67.16
29825;BME280;16713;52.916;12.834;2023-03-14T11:45:35;98395.69;;;12.04;66.57
29825;BME280;16713;52.916;12.834;2023-03-14T11:54:04;98417.25;;;11.59;70.88
29825;BME280;16713;52.916;12.834;2023-03-14T11:56:39;98434.16;;;11.31;72.11
29825;BME280;16713;52.916;12.834;2023-03-14T11:59:19;98436.66;;;10.92;75.40
29825;BME280;16713;52.916;12.834;2023-03-14T12:01:57;98422.53;;;10.63;77.19
29825;BME280;16713;52.916;12.834;2023-03-14T12:07:29;98418.97;;;10.66;78.66
29825;BME280;16713;52.916;12.834;2023-03-14T12:09:59;98413.63;;;10.86;78.62
29825;BME280;16713;52.916;12.834;2023-03-14T12:12:26;98415.19;;;10.83;79.16
29825;BME280;16713;52.916;12.834;2023-03-14T12:14:59;98407.66;;;10.61;79.42
29825;BME280;16713;52.916;12.834;2023-03-14T12:17:40;98410.13;;;10.82;79.25
29825;BME280;16713;52.916;12.834;2023-03-14T12:20:23;98407.84;;;10.77;80.28
29825;BME280;16713;52.916;12.834;2023-03-14T12:23:10;98403.56;;;10.76;80.71
29825;BME280;16713;52.916;12.834;2023-03-14T12:25:38;98403.78;;;10.88;79.96
29825;BME280;16713;52.916;12.834;2023-03-14T12:28:17;98403.72;;;10.92;79.09
29825;BME280;16713;52.916;12.834;2023-03-14T12:30:45;98386.25;;;10.82;77.58
29825;BME280;16713;52.916;12.834;2023-03-14T12:33:19;98388.16;;;10.85;78.53
29825;BME280;16713;52.916;12.834;2023-03-14T12:35:51;98383.09;;;10.84;77.03
29825;BME280;16713;52.916;12.834;2023-03-14T12:41:36;98370.38;;;10.97;75.78
29825;BME280;16713;52.916;12.834;2023-03-14T12:44:49;98363.84;;;10.87;75.49
29825;BME280;16713;52.916;12.834;2023-03-14T12:49:49;98357.16;;;10.88;75.75
29825;BME280;16713;52.916;12.834;2023-03-14T12:52:30;98357.66;;;10.80;75.74
29825;BME280;16713;52.916;12.834;2023-03-14T13:01:23;98350.22;;;10.80;76.22
29825;BME280;16713;52.916;12.834;2023-03-14T13:04:02;98363.16;;;10.80;77.47
29825;BME280;16713;52.916;12.834;2023-03-14T13:06:54;98364.25;;;10.86;77.68
29825;BME280;16713;52.916;12.834;2023-03-14T13:12:00;98361.84;;;10.88;77.36
29825;BME280;16713;52.916;12.834;2023-03-14T13:14:30;98369.47;;;10.77;77.40
29825;BME280;16713;52.916;12.834;2023-03-14T13:17:01;98384.41;;;10.72;78.49
29825;BME280;16713;52.916;12.834;2023-03-14T13:19:56;98333.13;;;10.09;77.81
29825;BME280;16713;52.916;12.834;2023-03-14T13:22:28;98347.63;;;10.06;77.53
29825;BME280;16713;52.916;12.834;2023-03-14T13:25:07;98345.06;;;9.88;78.64
29825;BME280;16713;52.916;12.834;2023-03-14T13:27:36;98344.25;;;9.54;79.68
29825;BME280;16713;52.916;12.834;2023-03-14T13:30:29;98340.97;;;9.70;80.48
29825;BME280;16713;52.916;12.834;2023-03-14T13:33:04;98333.19;;;9.65;83.21
29825;BME280;16713;52.916;12.834;2023-03-14T13:35:40;98344.75;;;9.83;82.75
29825;BME280;16713;52.916;12.834;2023-03-14T13:38:17;98351.28;;;9.92;83.42
29825;BME280;16713;52.916;12.834;2023-03-14T13:40:45;98347.34;;;9.97;83.76
29825;BME280;16713;52.916;12.834;2023-03-14T13:46:00;98331.91;;;9.76;85.94
29825;BME280;16713;52.916;12.834;2023-03-14T13:48:29;98339.56;;;9.92;85.58
29825;BME280;16713;52.916;12.834;2023-03-14T13:51:00;98341.06;;;9.96;86.75
29825;BME280;16713;52.916;12.834;2023-03-14T13:53:28;98340.09;;;10.13;86.50
29825;BME280;16713;52.916;12.834;2023-03-14T13:55:55;98338.19;;;10.10;86.61
29825;BME280;16713;52.916;12.834;2023-03-14T13:58:28;98332.94;;;10.23;86.22